sensor_id;sensor_type;location;lat;lon;timestamp;pressure;altitude;pressure_sealevel;temperature;humidity
57574;BME280;63722;48.858;21.906;2023-03-20T00:03:41;98651.97;;;22.75;30.30
57574;BME280;63722;48.858;21.906;2023-03-20T00:06:26;98663.78;;;22.84;30.48
57574;BME280;63722;48.858;21.906;2023-03-20T00:08:56;98662.16;;;22.78;30.41
57574;BME280;63722;48.858;21.906;2023-03-20T00:11:33;98652.56;;;22.82;30.39
57574;BME280;63722;48.858;21.906;2023-03-20T00:14:03;98653.59;;;22.76;30.58
57574;BME280;63722;48.858;21.906;2023-03-20T00:16:40;98649.84;;;22.77;30.29
57574;BME280;63722;48.858;21.906;2023-03-20T00:19:16;98650.66;;;22.77;30.45
57574;BME280;63722;48.858;21.906;2023-03-20T00:21:43;98657.31;;;22.75;30.45
57574;BME280;63722;48.858;21.906;2023-03-20T00:24:10;98656.53;;;22.74;30.59
57574;BME280;63722;48.858;21.906;2023-03-20T00:26:35;98650.34;;;22.74;30.44
57574;BME280;63722;48.858;21.906;2023-03-20T00:29:03;98641.28;;;22.75;30.50
57574;BME280;63722;48.858;21.906;2023-03-20T00:31:31;98643.97;;;22.75;30.75
57574;BME280;63722;48.858;21.906;2023-03-20T00:33:59;98643.69;;;22.76;30.44
57574;BME280;63722;48.858;21.906;2023-03-20T00:36:25;98636.72;;;22.75;30.48
57574;BME280;63722;48.858;21.906;2023-03-20T00:38:52;98633.25;;;22.75;30.35
57574;BME280;63722;48.858;21.906;2023-03-20T00:43:52;98639.16;;;22.77;30.39
57574;BME280;63722;48.858;21.906;2023-03-20T00:46:18;98634.88;;;22.76;30.25
57574;BME280;63722;48.858;21.906;2023-03-20T00:48:44;98632.75;;;22.78;30.47
57574;BME280;63722;48.858;21.906;2023-03-20T00:51:11;98638.34;;;22.76;30.48
57574;BME280;63722;48.858;21.906;2023-03-20T00:53:36;98640.22;;;22.76;30.35
57574;BME280;63722;48.858;21.906;2023-03-20T00:56:02;98626.88;;;22.76;30.60
57574;BME280;63722;48.858;21.906;2023-03-20T00:58:27;98632.22;;;22.76;30.45
57574;BME280;63722;48.858;21.906;2023-03-20T01:00:53;98636.72;;;22.75;30.61
57574;BME280;63722;48.858;21.906;2023-03-20T01:03:21;98641.81;;;22.77;30.38
57574;BME280;63722;48.858;21.906;2023-03-20T01:05:49;98649.31;;;22.75;30.45
57574;BME280;63722;48.858;21.906;2023-03-20T01:08:20;98645.56;;;22.76;30.49
57574;BME280;63722;48.858;21.906;2023-03-20T01:10:48;98637.56;;;22.76;30.47
57574;BME280;63722;48.858;21.906;2023-03-20T01:15:48;98639.97;;;22.77;30.43
57574;BME280;63722;48.858;21.906;2023-03-20T01:18:15;98640.50;;;22.74;30.61
57574;BME280;63722;48.858;21.906;2023-03-20T01:20:42;98635.94;;;22.75;30.56
57574;BME280;63722;48.858;21.906;2023-03-20T01:23:08;98637.00;;;22.74;30.46
57574;BME280;63722;48.858;21.906;2023-03-20T01:25:34;98640.22;;;22.76;30.34
57574;BME280;63722;48.858;21.906;2023-03-20T01:28:00;98636.47;;;22.77;30.73
57574;BME280;63722;48.858;21.906;2023-03-20T01:30:29;98639.97;;;22.77;30.44
57574;BME280;63722;48.858;21.906;2023-03-20T01:32:57;98637.56;;;22.76;30.42
57574;BME280;63722;48.858;21.906;2023-03-20T01:35:26;98631.38;;;22.75;30.44
57574;BME280;63722;48.858;21.906;2023-03-20T01:37:52;98622.31;;;22.76;30.64
57574;BME280;63722;48.858;21.906;2023-03-20T01:43:13;98624.72;;;22.78;30.40
57574;BME280;63722;48.858;21.906;2023-03-20T01:45:48;98628.44;;;22.77;30.54
57574;BME280;63722;48.858;21.906;2023-03-20T01:48:17;98631.38;;;22.75;30.44
57574;BME280;63722;48.858;21.906;2023-03-20T01:50:43;98628.97;;;22.74;30.30
57574;BME280;63722;48.858;21.906;2023-03-20T01:53:22;98636.22;;;22.78;30.54
57574;BME280;63722;48.858;21.906;2023-03-20T01:55:50;98632.22;;;22.76;30.41
57574;BME280;63722;48.858;21.906;2023-03-20T01:58:25;98627.41;;;22.78;30.43
57574;BME280;63722;48.858;21.906;2023-03-20T02:00:52;98628.19;;;22.78;30.41
57574;BME280;63722;48.858;21.906;2023-03-20T02:03:18;98626.03;;;22.75;30.48
57574;BME280;63722;48.858;21.906;2023-03-20T02:05:44;98636.47;;;22.77;30.55
57574;BME280;63722;48.858;21.906;2023-03-20T02:10:35;98634.31;;;22.74;30.68
57574;BME280;63722;48.858;21.906;2023-03-20T02:13:02;98635.94;;;22.75;30.39
57574;BME280;63722;48.858;21.906;2023-03-20T02:15:29;98637.56;;;22.76;30.49
57574;BME280;63722;48.858;21.906;2023-03-20T02:17:54;98637.81;;;22.74;30.50
57574;BME280;63722;48.858;21.906;2023-03-20T02:20:37;98642.91;;;22.81;30.42
57574;BME280;63722;48.858;21.906;2023-03-20T02:39:22;98632.72;;;22.73;30.65
57574;BME280;63722;48.858;21.906;2023-03-20T02:42:00;98621.00;;;22.79;30.49
57574;BME280;63722;48.858;21.906;2023-03-20T02:44:45;98617.22;;;22.75;30.43
57574;BME280;63722;48.858;21.906;2023-03-20T02:58:12;98614.56;;;22.80;30.71
57574;BME280;63722;48.858;21.906;2023-03-20T03:01:10;98616.97;;;22.81;30.41
57574;BME280;63722;48.858;21.906;2023-03-20T03:03:55;98623.16;;;22.82;30.43
57574;BME280;63722;48.858;21.906;2023-03-20T03:06:29;98618.84;;;22.76;30.75
57574;BME280;63722;48.858;21.906;2023-03-20T03:09:17;98615.66;;;22.79;30.34
57574;BME280;63722;48.858;21.906;2023-03-20T03:11:49;98608.69;;;22.78;30.50
57574;BME280;63722;48.858;21.906;2023-03-20T03:14:37;98611.38;;;22.83;30.41
57574;BME280;63722;48.858;21.906;2023-03-20T03:17:06;98607.63;;;22.79;30.40
57574;BME280;63722;48.858;21.906;2023-03-20T03:19:34;98611.63;;;22.76;30.38
57574;BME280;63722;48.858;21.906;2023-03-20T03:22:01;98606.78;;;22.73;30.48
57574;BME280;63722;48.858;21.906;2023-03-20T03:24:36;98616.97;;;22.81;30.52
57574;BME280;63722;48.858;21.906;2023-03-20T03:27:15;98612.72;;;22.80;30.46
57574;BME280;63722;48.858;21.906;2023-03-20T03:29:42;98611.88;;;22.80;30.62
57574;BME280;63722;48.858;21.906;2023-03-20T03:34:52;98607.38;;;22.80;30.62
57574;BME280;63722;48.858;21.906;2023-03-20T03:40:17;98601.75;;;22.82;30.47
57574;BME280;63722;48.858;21.906;2023-03-20T03:45:32;98612.97;;;22.79;30.37
57574;BME280;63722;48.858;21.906;2023-03-20T03:48:07;98612.16;;;22.78;30.54
57574;BME280;63722;48.858;21.906;2023-03-20T03:50:50;98608.16;;;22.81;30.54
57574;BME280;63722;48.858;21.906;2023-03-20T03:53:24;98615.66;;;22.79;30.50
57574;BME280;63722;48.858;21.906;2023-03-20T03:55:59;98614.81;;;22.78;30.79
57574;BME280;63722;48.858;21.906;2023-03-20T03:58:36;98613.50;;;22.81;30.60
57574;BME280;63722;48.858;21.906;2023-03-20T04:01:04;98613.50;;;22.76;30.48
57574;BME280;63722;48.858;21.906;2023-03-20T04:03:34;98614.56;;;22.75;30.65
57574;BME280;63722;48.858;21.906;2023-03-20T04:06:02;98607.06;;;22.77;30.37
57574;BME280;63722;48.858;21.906;2023-03-20T04:08:28;98608.69;;;22.78;30.49
57574;BME280;63722;48.858;21.906;2023-03-20T04:10:53;98616.72;;;22.78;30.44
57574;BME280;63722;48.858;21.906;2023-03-20T04:13:19;98619.38;;;22.78;30.53
57574;BME280;63722;48.858;21.906;2023-03-20T04:15:44;98617.50;;;22.78;30.42
57574;BME280;63722;48.858;21.906;2023-03-20T04:18:14;98621.00;;;22.79;30.35
57574;BME280;63722;48.858;21.906;2023-03-20T04:20:41;98626.59;;;22.77;30.38
57574;BME280;63722;48.858;21.906;2023-03-20T04:23:06;98623.94;;;22.77;30.40
57574;BME280;63722;48.858;21.906;2023-03-20T04:25:32;98612.41;;;22.77;30.62
57574;BME280;63722;48.858;21.906;2023-03-20T04:27:57;98618.31;;;22.79;30.41
57574;BME280;63722;48.858;21.906;2023-03-20T04:30:22;98614.03;;;22.78;30.54
57574;BME280;63722;48.858;21.906;2023-03-20T04:32:48;98617.22;;;22.75;30.70
57574;BME280;63722;48.858;21.906;2023-03-20T04:35:13;98622.31;;;22.76;30.56
57574;BME280;63722;48.858;21.906;2023-03-20T04:37:39;98627.94;;;22.80;30.48
57574;BME280;63722;48.858;21.906;2023-03-20T04:40:04;98634.38;;;22.79;30.48
57574;BME280;63722;48.858;21.906;2023-03-20T04:42:30;98637.28;;;22.77;30.66
57574;BME280;63722;48.858;21.906;2023-03-20T04:44:55;98630.88;;;22.78;30.56
57574;BME280;63722;48.858;21.906;2023-03-20T04:47:21;98641.81;;;22.77;30.60
57574;BME280;63722;48.858;21.906;2023-03-20T04:49:46;98642.38;;;22.79;30.33
57574;BME280;63722;48.858;21.906;2023-03-20T04:52:11;98638.63;;;22.80;30.53
57574;BME280;63722;48.858;21.906;2023-03-20T04:54:37;98643.44;;;22.78;30.48
57574;BME280;63722;48.858;21.906;2023-03-20T04:57:02;98638.09;;;22.78;30.67
57574;BME280;63722;48.858;21.906;2023-03-20T04:59:28;98631.69;;;22.79;30.48
57574;BME280;63722;48.858;21.906;2023-03-20T05:01:53;98645.59;;;22.81;30.49
57574;BME280;63722;48.858;21.906;2023-03-20T05:04:18;98646.38;;;22.81;30.38
57574;BME280;63722;48.858;21.906;2023-03-20T05:06:44;98642.91;;;22.81;30.45
57574;BME280;63722;48.858;21.906;2023-03-20T05:09:13;98645.59;;;22.81;30.56
57574;BME280;63722;48.858;21.906;2023-03-20T05:11:38;98647.22;;;22.82;30.43
57574;BME280;63722;48.858;21.906;2023-03-20T05:14:04;98653.63;;;22.81;30.65
57574;BME280;63722;48.858;21.906;2023-03-20T05:16:31;98649.31;;;22.80;30.60
57574;BME280;63722;48.858;21.906;2023-03-20T05:18:56;98660.00;;;22.80;30.71
57574;BME280;63722;48.858;21.906;2023-03-20T05:21:21;98663.78;;;22.79;30.68
57574;BME280;63722;48.858;21.906;2023-03-20T05:23:47;98662.16;;;22.78;30.86
57574;BME280;63722;48.858;21.906;2023-03-20T05:26:12;98654.66;;;22.80;30.72
57574;BME280;63722;48.858;21.906;2023-03-20T05:28:38;98656.81;;;22.83;30.68
57574;BME280;63722;48.858;21.906;2023-03-20T05:31:03;98659.53;;;22.88;30.64
57574;BME280;63722;48.858;21.906;2023-03-20T05:33:29;98655.84;;;22.94;30.81
57574;BME280;63722;48.858;21.906;2023-03-20T05:35:54;98660.41;;;22.99;30.81
57574;BME280;63722;48.858;21.906;2023-03-20T05:38:20;98659.38;;;23.05;30.46
57574;BME280;63722;48.858;21.906;2023-03-20T05:40:48;98650.00;;;23.07;30.61
57574;BME280;63722;48.858;21.906;2023-03-20T05:43:13;98654.34;;;23.14;30.61
57574;BME280;63722;48.858;21.906;2023-03-20T05:45:38;98651.19;;;23.22;30.44
57574;BME280;63722;48.858;21.906;2023-03-20T05:48:04;98650.13;;;23.28;30.32
57574;BME280;63722;48.858;21.906;2023-03-20T05:50:30;98646.94;;;23.31;30.56
57574;BME280;63722;48.858;21.906;2023-03-20T05:52:55;98653.06;;;23.37;30.29
57574;BME280;63722;48.858;21.906;2023-03-20T05:55:21;98655.50;;;23.38;30.60
57574;BME280;63722;48.858;21.906;2023-03-20T05:57:46;98656.06;;;23.40;30.88
57574;BME280;63722;48.858;21.906;2023-03-20T06:00:12;98659.00;;;23.44;30.77
57574;BME280;63722;48.858;21.906;2023-03-20T06:02:37;98654.19;;;23.41;30.98
57574;BME280;63722;48.858;21.906;2023-03-20T06:05:03;98656.03;;;23.35;30.29
57574;BME280;63722;48.858;21.906;2023-03-20T06:07:28;98656.81;;;23.31;30.35
57574;BME280;63722;48.858;21.906;2023-03-20T06:09:54;98651.72;;;23.29;30.68
57574;BME280;63722;48.858;21.906;2023-03-20T06:12:20;98663.50;;;23.28;30.71
57574;BME280;63722;48.858;21.906;2023-03-20T06:14:46;98658.16;;;23.28;30.33
57574;BME280;63722;48.858;21.906;2023-03-20T06:17:11;98656.53;;;23.32;30.53
57574;BME280;63722;48.858;21.906;2023-03-20T06:19:37;98650.13;;;23.33;30.28
57574;BME280;63722;48.858;21.906;2023-03-20T06:22:02;98658.69;;;23.35;30.22
57574;BME280;63722;48.858;21.906;2023-03-20T06:24:28;98661.63;;;23.34;29.85
57574;BME280;63722;48.858;21.906;2023-03-20T06:26:53;98666.19;;;23.38;29.65
57574;BME280;63722;48.858;21.906;2023-03-20T06:29:19;98659.25;;;23.37;29.90
57574;BME280;63722;48.858;21.906;2023-03-20T06:31:44;98654.97;;;23.36;29.95
57574;BME280;63722;48.858;21.906;2023-03-20T06:34:10;98659.22;;;23.32;29.84
57574;BME280;63722;48.858;21.906;2023-03-20T06:36:35;98666.97;;;23.34;29.56
57574;BME280;63722;48.858;21.906;2023-03-20T06:39:02;98659.78;;;23.34;29.52
57574;BME280;63722;48.858;21.906;2023-03-20T06:41:28;98657.38;;;23.33;29.70
57574;BME280;63722;48.858;21.906;2023-03-20T06:43:53;98662.47;;;23.34;29.87
57574;BME280;63722;48.858;21.906;2023-03-20T06:46:19;98663.28;;;23.45;30.22
57574;BME280;63722;48.858;21.906;2023-03-20T06:48:46;98669.44;;;23.46;29.46
57574;BME280;63722;48.858;21.906;2023-03-20T06:51:12;98653.38;;;23.51;29.50
57574;BME280;63722;48.858;21.906;2023-03-20T06:53:38;98652.06;;;23.58;30.15
57574;BME280;63722;48.858;21.906;2023-03-20T06:56:06;98660.09;;;23.58;30.18
57574;BME280;63722;48.858;21.906;2023-03-20T06:58:32;98666.81;;;23.61;30.37
57574;BME280;63722;48.858;21.906;2023-03-20T07:00:57;98667.34;;;23.53;29.92
57574;BME280;63722;48.858;21.906;2023-03-20T07:03:22;98664.09;;;23.51;29.67
57574;BME280;63722;48.858;21.906;2023-03-20T07:05:48;98674.00;;;23.50;29.50
57574;BME280;63722;48.858;21.906;2023-03-20T07:08:14;98668.13;;;23.58;29.38
57574;BME280;63722;48.858;21.906;2023-03-20T07:10:40;98679.09;;;23.57;29.73
57574;BME280;63722;48.858;21.906;2023-03-20T07:13:05;98681.78;;;23.57;29.36
57574;BME280;63722;48.858;21.906;2023-03-20T07:15:31;98687.69;;;23.59;29.42
57574;BME280;63722;48.858;21.906;2023-03-20T07:17:56;98690.09;;;23.60;29.34
57574;BME280;63722;48.858;21.906;2023-03-20T07:20:22;98686.59;;;23.55;29.32
57574;BME280;63722;48.858;21.906;2023-03-20T07:22:47;98690.38;;;23.69;29.34
57574;BME280;63722;48.858;21.906;2023-03-20T07:25:13;98680.50;;;23.75;29.83
57574;BME280;63722;48.858;21.906;2023-03-20T07:27:39;98673.81;;;23.83;29.53
57574;BME280;63722;48.858;21.906;2023-03-20T07:30:05;98683.16;;;23.80;29.18
57574;BME280;63722;48.858;21.906;2023-03-20T07:32:31;98676.25;;;23.84;29.30
57574;BME280;63722;48.858;21.906;2023-03-20T07:34:57;98679.13;;;23.72;29.06
57574;BME280;63722;48.858;21.906;2023-03-20T07:37:22;98673.00;;;23.67;29.11
57574;BME280;63722;48.858;21.906;2023-03-20T07:39:48;98671.09;;;23.72;29.25
57574;BME280;63722;48.858;21.906;2023-03-20T07:42:14;98673.78;;;23.67;28.96
57574;BME280;63722;48.858;21.906;2023-03-20T07:44:40;98668.47;;;23.77;29.43
57574;BME280;63722;48.858;21.906;2023-03-20T07:47:05;98672.75;;;23.84;29.56
57574;BME280;63722;48.858;21.906;2023-03-20T07:49:31;98677.06;;;23.85;30.09
57574;BME280;63722;48.858;21.906;2023-03-20T07:51:57;98674.94;;;23.87;30.26
57574;BME280;63722;48.858;21.906;2023-03-20T07:54:22;98678.94;;;23.89;30.77
57574;BME280;63722;48.858;21.906;2023-03-20T07:56:48;98684.84;;;23.91;31.08
57574;BME280;63722;48.858;21.906;2023-03-20T07:59:15;98683.50;;;23.94;31.40
57574;BME280;63722;48.858;21.906;2023-03-20T08:01:40;98682.16;;;23.97;31.62
57574;BME280;63722;48.858;21.906;2023-03-20T08:04:06;98681.91;;;23.98;31.68
57574;BME280;63722;48.858;21.906;2023-03-20T08:06:31;98674.41;;;24.05;31.80
57574;BME280;63722;48.858;21.906;2023-03-20T08:08:57;98678.16;;;24.04;31.91
57574;BME280;63722;48.858;21.906;2023-03-20T08:11:22;98677.91;;;24.06;32.06
57574;BME280;63722;48.858;21.906;2023-03-20T08:13:48;98682.44;;;24.10;32.21
57574;BME280;63722;48.858;21.906;2023-03-20T08:16:13;98681.91;;;24.13;32.05
57574;BME280;63722;48.858;21.906;2023-03-20T08:18:39;98680.31;;;24.18;32.21
57574;BME280;63722;48.858;21.906;2023-03-20T08:21:04;98678.16;;;24.25;32.38
57574;BME280;63722;48.858;21.906;2023-03-20T08:23:30;98677.63;;;24.28;32.36
57574;BME280;63722;48.858;21.906;2023-03-20T08:25:55;98674.13;;;24.33;32.32
57574;BME280;63722;48.858;21.906;2023-03-20T08:28:22;98678.69;;;24.37;32.32
57574;BME280;63722;48.858;21.906;2023-03-20T08:30:47;98674.41;;;24.41;32.50
57574;BME280;63722;48.858;21.906;2023-03-20T08:33:15;98673.59;;;24.46;32.50
57574;BME280;63722;48.858;21.906;2023-03-20T08:35:41;98674.13;;;24.48;32.45
57574;BME280;63722;48.858;21.906;2023-03-20T08:38:10;98679.50;;;24.53;32.37
57574;BME280;63722;48.858;21.906;2023-03-20T08:40:36;98676.56;;;24.55;32.50
57574;BME280;63722;48.858;21.906;2023-03-20T08:43:04;98671.19;;;24.55;32.68
57574;BME280;63722;48.858;21.906;2023-03-20T08:45:29;98672.28;;;24.59;32.60
57574;BME280;63722;48.858;21.906;2023-03-20T08:47:55;98673.34;;;24.63;32.63
57574;BME280;63722;48.858;21.906;2023-03-20T08:50:21;98673.34;;;24.63;32.68
57574;BME280;63722;48.858;21.906;2023-03-20T08:52:46;98672.56;;;24.62;32.79
57574;BME280;63722;48.858;21.906;2023-03-20T08:55:13;98666.38;;;24.62;32.88
57574;BME280;63722;48.858;21.906;2023-03-20T08:57:39;98665.28;;;24.68;32.87
57574;BME280;63722;48.858;21.906;2023-03-20T09:00:06;98665.81;;;24.65;32.97
57574;BME280;63722;48.858;21.906;2023-03-20T09:02:36;98663.69;;;24.72;33.10
57574;BME280;63722;48.858;21.906;2023-03-20T09:05:01;98658.06;;;24.63;33.14
57574;BME280;63722;48.858;21.906;2023-03-20T09:07:26;98655.91;;;24.60;32.97
57574;BME280;63722;48.858;21.906;2023-03-20T09:09:52;98647.88;;;24.60;33.15
57574;BME280;63722;48.858;21.906;2023-03-20T09:12:17;98644.66;;;24.63;33.00
57574;BME280;63722;48.858;21.906;2023-03-20T09:14:43;98646.00;;;24.61;33.00
57574;BME280;63722;48.858;21.906;2023-03-20T09:17:09;98642.25;;;24.62;33.08
57574;BME280;63722;48.858;21.906;2023-03-20T09:19:34;98633.66;;;24.65;32.95
57574;BME280;63722;48.858;21.906;2023-03-20T09:22:01;98636.34;;;24.65;33.03
57574;BME280;63722;48.858;21.906;2023-03-20T09:24:27;98639.84;;;24.65;33.09
57574;BME280;63722;48.858;21.906;2023-03-20T09:26:53;98640.09;;;24.64;32.89
57574;BME280;63722;48.858;21.906;2023-03-20T09:29:19;98632.31;;;24.67;33.51
57574;BME280;63722;48.858;21.906;2023-03-20T09:31:44;98632.03;;;24.74;34.52
57574;BME280;63722;48.858;21.906;2023-03-20T09:34:09;98630.94;;;24.80;34.83
57574;BME280;63722;48.858;21.906;2023-03-20T09:36:35;98629.03;;;24.86;34.81
57574;BME280;63722;48.858;21.906;2023-03-20T09:39:01;98630.13;;;24.80;34.65
57574;BME280;63722;48.858;21.906;2023-03-20T09:41:28;98633.09;;;24.78;34.48
57574;BME280;63722;48.858;21.906;2023-03-20T09:52:29;98623.19;;;24.74;32.73
57574;BME280;63722;48.858;21.906;2023-03-20T09:54:59;98617.56;;;24.70;32.57
57574;BME280;63722;48.858;21.906;2023-03-20T09:57:30;98613.25;;;24.74;32.45
57574;BME280;63722;48.858;21.906;2023-03-20T10:00:02;98612.72;;;24.77;32.67
57574;BME280;63722;48.858;21.906;2023-03-20T10:02:51;98604.66;;;24.77;32.38
57574;BME280;63722;48.858;21.906;2023-03-20T10:05:35;98597.97;;;24.70;32.04
57574;BME280;63722;48.858;21.906;2023-03-20T10:08:05;98608.22;;;24.62;31.77
57574;BME280;63722;48.858;21.906;2023-03-20T10:15:50;98594.00;;;24.67;31.56
57574;BME280;63722;48.858;21.906;2023-03-20T10:18:25;98596.66;;;24.62;31.10
57574;BME280;63722;48.858;21.906;2023-03-20T10:21:04;98606.31;;;24.63;31.20
57574;BME280;63722;48.858;21.906;2023-03-20T10:23:36;98587.31;;;24.59;30.77
57574;BME280;63722;48.858;21.906;2023-03-20T10:26:09;98598.81;;;24.55;30.97
57574;BME280;63722;48.858;21.906;2023-03-20T10:28:42;98600.97;;;24.58;31.20
57574;BME280;63722;48.858;21.906;2023-03-20T10:36:49;98582.97;;;24.63;30.82
57574;BME280;63722;48.858;21.906;2023-03-20T10:41:54;98586.47;;;24.54;31.10
57574;BME280;63722;48.858;21.906;2023-03-20T10:46:53;98588.06;;;24.70;30.62
57574;BME280;63722;48.858;21.906;2023-03-20T10:49:39;98585.97;;;24.52;30.63
57574;BME280;63722;48.858;21.906;2023-03-20T10:52:16;98582.72;;;24.49;30.69
57574;BME280;63722;48.858;21.906;2023-03-20T10:54:53;98575.75;;;24.54;30.49
57574;BME280;63722;48.858;21.906;2023-03-20T10:57:22;98582.75;;;24.44;30.46
57574;BME280;63722;48.858;21.906;2023-03-20T10:59:50;98575.50;;;24.45;30.32
57574;BME280;63722;48.858;21.906;2023-03-20T11:02:18;98581.69;;;24.45;30.58
57574;BME280;63722;48.858;21.906;2023-03-20T11:04:44;98567.72;;;24.48;30.36
57574;BME280;63722;48.858;21.906;2023-03-20T11:07:33;98557.00;;;24.54;30.08
57574;BME280;63722;48.858;21.906;2023-03-20T11:10:07;98554.84;;;24.51;30.16
57574;BME280;63722;48.858;21.906;2023-03-20T11:12:45;98558.06;;;24.47;29.67
57574;BME280;63722;48.858;21.906;2023-03-20T11:15:25;98554.56;;;24.52;29.87
57574;BME280;63722;48.858;21.906;2023-03-20T11:20:24;98543.63;;;24.38;29.27
57574;BME280;63722;48.858;21.906;2023-03-20T11:22:56;98533.97;;;24.42;29.38
57574;BME280;63722;48.858;21.906;2023-03-20T11:25:35;98544.94;;;24.46;29.30
57574;BME280;63722;48.858;21.906;2023-03-20T11:33:59;98526.69;;;24.48;29.00
57574;BME280;63722;48.858;21.906;2023-03-20T11:36:29;98527.50;;;24.59;28.85
57574;BME280;63722;48.858;21.906;2023-03-20T11:39:09;98528.88;;;24.46;28.92
57574;BME280;63722;48.858;21.906;2023-03-20T11:41:41;98517.06;;;24.52;28.65
57574;BME280;63722;48.858;21.906;2023-03-20T11:46:58;98512.25;;;24.49;29.01
57574;BME280;63722;48.858;21.906;2023-03-20T11:49:26;98514.66;;;24.51;28.88
57574;BME280;63722;48.858;21.906;2023-03-20T11:51:58;98507.13;;;24.53;29.40
57574;BME280;63722;48.858;21.906;2023-03-20T11:54:26;98508.50;;;24.50;29.57
57574;BME280;63722;48.858;21.906;2023-03-20T11:59:17;98495.84;;;24.56;29.68
57574;BME280;63722;48.858;21.906;2023-03-20T12:01:49;98502.81;;;24.57;29.76
57574;BME280;63722;48.858;21.906;2023-03-20T12:04:35;98496.94;;;24.55;29.94
57574;BME280;63722;48.858;21.906;2023-03-20T12:07:19;98498.78;;;24.70;29.69
57574;BME280;63722;48.858;21.906;2023-03-20T12:09:53;98495.88;;;24.61;30.02
57574;BME280;63722;48.858;21.906;2023-03-20T12:12:33;98488.31;;;24.68;29.95
57574;BME280;63722;48.858;21.906;2023-03-20T12:20:40;98478.38;;;24.74;30.43
57574;BME280;63722;48.858;21.906;2023-03-20T12:23:26;98474.91;;;24.68;30.68
57574;BME280;63722;48.858;21.906;2023-03-20T12:26:27;98474.94;;;24.63;30.94
57574;BME280;63722;48.858;21.906;2023-03-20T12:28:59;98475.19;;;24.72;30.71
57574;BME280;63722;48.858;21.906;2023-03-20T12:34:20;98463.13;;;24.69;31.05
57574;BME280;63722;48.858;21.906;2023-03-20T12:36:49;98462.28;;;24.74;31.02
57574;BME280;63722;48.858;21.906;2023-03-20T12:39:19;98464.22;;;24.63;31.07
57574;BME280;63722;48.858;21.906;2023-03-20T12:44:56;98451.84;;;24.72;31.11
57574;BME280;63722;48.858;21.906;2023-03-20T12:50:37;98443.06;;;24.61;31.35
57574;BME280;63722;48.858;21.906;2023-03-20T13:01:35;98427.41;;;24.79;31.22
57574;BME280;63722;48.858;21.906;2023-03-20T13:06:37;98434.69;;;24.68;31.67
57574;BME280;63722;48.858;21.906;2023-03-20T13:17:51;98423.97;;;24.73;31.92
57574;BME280;63722;48.858;21.906;2023-03-20T13:20:35;98415.91;;;24.73;31.89
57574;BME280;63722;48.858;21.906;2023-03-20T13:39:57;98401.97;;;24.71;32.16
57574;BME280;63722;48.858;21.906;2023-03-20T13:42:28;98413.00;;;24.64;32.32
57574;BME280;63722;48.858;21.906;2023-03-20T13:45:04;98405.75;;;24.70;32.03
57574;BME280;63722;48.858;21.906;2023-03-20T13:47:32;98401.78;;;24.62;31.81
57574;BME280;63722;48.858;21.906;2023-03-20T13:50:32;98402.22;;;24.75;32.02
57574;BME280;63722;48.858;21.906;2023-03-20T13:53:18;98406.53;;;24.71;31.93
57574;BME280;63722;48.858;21.906;2023-03-20T13:55:54;98399.84;;;24.68;31.88
57574;BME280;63722;48.858;21.906;2023-03-20T13:58:40;98407.88;;;24.68;31.80
57574;BME280;63722;48.858;21.906;2023-03-20T14:04:17;98392.91;;;24.67;31.91
57574;BME280;63722;48.858;21.906;2023-03-20T14:06:48;98391.06;;;24.62;32.19
57574;BME280;63722;48.858;21.906;2023-03-20T14:09:33;98391.56;;;24.64;31.87
57574;BME280;63722;48.858;21.906;2023-03-20T14:12:04;98393.47;;;24.59;32.17
57574;BME280;63722;48.858;21.906;2023-03-20T14:14:52;98388.59;;;24.66;32.00
57574;BME280;63722;48.858;21.906;2023-03-20T14:17:24;98393.47;;;24.59;32.08
57574;BME280;63722;48.858;21.906;2023-03-20T14:19:51;98399.34;;;24.56;32.22
57574;BME280;63722;48.858;21.906;2023-03-20T14:24:56;98396.97;;;24.59;32.11
57574;BME280;63722;48.858;21.906;2023-03-20T14:27:27;98396.66;;;24.56;31.90
57574;BME280;63722;48.858;21.906;2023-03-20T14:29:52;98393.75;;;24.52;32.24
57574;BME280;63722;48.858;21.906;2023-03-20T14:34:50;98395.59;;;24.57;31.91
57574;BME280;63722;48.858;21.906;2023-03-20T14:40:27;98396.16;;;24.59;32.36
57574;BME280;63722;48.858;21.906;2023-03-20T14:43:04;98390.50;;;24.55;32.22
57574;BME280;63722;48.858;21.906;2023-03-20T14:45:50;98389.44;;;24.56;32.38
57574;BME280;63722;48.858;21.906;2023-03-20T14:48:41;98391.91;;;24.47;32.28
57574;BME280;63722;48.858;21.906;2023-03-20T14:54:18;98392.75;;;24.38;32.70
57574;BME280;63722;48.858;21.906;2023-03-20T14:56:42;98389.81;;;24.34;32.77
57574;BME280;63722;48.858;21.906;2023-03-20T14:59:09;98383.16;;;24.31;32.87
57574;BME280;63722;48.858;21.906;2023-03-20T15:04:04;98385.28;;;24.29;32.89
57574;BME280;63722;48.858;21.906;2023-03-20T15:06:31;98388.50;;;24.26;32.87
57574;BME280;63722;48.858;21.906;2023-03-20T15:09:00;98390.41;;;24.26;33.16
57574;BME280;63722;48.858;21.906;2023-03-20T15:11:29;98388.25;;;24.23;33.15
57574;BME280;63722;48.858;21.906;2023-03-20T15:13:57;98393.63;;;24.23;32.96
57574;BME280;63722;48.858;21.906;2023-03-20T15:16:29;98387.19;;;24.24;33.04
57574;BME280;63722;48.858;21.906;2023-03-20T15:18:55;98386.09;;;24.25;32.91
57574;BME280;63722;48.858;21.906;2023-03-20T15:21:35;98388.25;;;24.23;33.05
57574;BME280;63722;48.858;21.906;2023-03-20T15:24:01;98392.56;;;24.19;33.25
57574;BME280;63722;48.858;21.906;2023-03-20T15:26:28;98385.06;;;24.16;33.53
57574;BME280;63722;48.858;21.906;2023-03-20T15:31:31;98384.03;;;24.11;33.49
57574;BME280;63722;48.858;21.906;2023-03-20T15:33:59;98384.81;;;24.12;33.53
57574;BME280;63722;48.858;21.906;2023-03-20T15:36:27;98382.41;;;24.10;33.40
57574;BME280;63722;48.858;21.906;2023-03-20T15:41:33;98391.28;;;24.06;33.55